sensor_id;sensor_type;location;lat;lon;timestamp;P1;durP1;ratioP1;P2;durP2;ratioP2
23614;SDS011;11985;49.404;7.734;2022-07-18T00:00:50;3.00;;;1.10;;
23614;SDS011;11985;49.404;7.734;2022-07-18T00:03:15;1.42;;;1.02;;
23614;SDS011;11985;49.404;7.734;2022-07-18T00:05:41;1.58;;;1.10;;
23614;SDS011;11985;49.404;7.734;2022-07-18T00:08:06;5.10;;;0.80;;
23614;SDS011;11985;49.404;7.734;2022-07-18T00:10:32;2.35;;;1.40;;
23614;SDS011;11985;49.404;7.734;2022-07-18T00:12:57;1.42;;;0.90;;
23614;SDS011;11985;49.404;7.734;2022-07-18T00:15:22;1.98;;;1.13;;
23614;SDS011;11985;49.404;7.734;2022-07-18T00:17:48;3.55;;;1.15;;
23614;SDS011;11985;49.404;7.734;2022-07-18T00:20:13;1.50;;;1.08;;
23614;SDS011;11985;49.404;7.734;2022-07-18T00:22:39;2.05;;;1.00;;
23614;SDS011;11985;49.404;7.734;2022-07-18T00:25:04;2.65;;;0.90;;
23614;SDS011;11985;49.404;7.734;2022-07-18T00:27:31;6.32;;;1.23;;
23614;SDS011;11985;49.404;7.734;2022-07-18T00:29:57;2.85;;;1.08;;
23614;SDS011;11985;49.404;7.734;2022-07-18T00:32:22;1.23;;;0.88;;
23614;SDS011;11985;49.404;7.734;2022-07-18T00:34:47;2.40;;;1.10;;
23614;SDS011;11985;49.404;7.734;2022-07-18T00:37:13;1.83;;;1.08;;
23614;SDS011;11985;49.404;7.734;2022-07-18T00:39:38;1.30;;;0.90;;
23614;SDS011;11985;49.404;7.734;2022-07-18T00:42:04;2.95;;;1.00;;
23614;SDS011;11985;49.404;7.734;2022-07-18T00:44:29;2.42;;;1.10;;
23614;SDS011;11985;49.404;7.734;2022-07-18T00:46:56;5.97;;;1.67;;
23614;SDS011;11985;49.404;7.734;2022-07-18T00:49:24;2.83;;;1.00;;
23614;SDS011;11985;49.404;7.734;2022-07-18T00:51:50;1.80;;;0.90;;
23614;SDS011;11985;49.404;7.734;2022-07-18T00:54:15;2.25;;;1.10;;
23614;SDS011;11985;49.404;7.734;2022-07-18T00:56:42;2.60;;;0.85;;
23614;SDS011;11985;49.404;7.734;2022-07-18T00:59:09;1.63;;;1.00;;
23614;SDS011;11985;49.404;7.734;2022-07-18T01:01:36;2.17;;;0.90;;
23614;SDS011;11985;49.404;7.734;2022-07-18T01:04:09;1.30;;;0.90;;
23614;SDS011;11985;49.404;7.734;2022-07-18T01:06:36;1.77;;;0.75;;
23614;SDS011;11985;49.404;7.734;2022-07-18T01:09:02;2.47;;;1.30;;
23614;SDS011;11985;49.404;7.734;2022-07-18T01:11:28;4.30;;;1.10;;
23614;SDS011;11985;49.404;7.734;2022-07-18T01:13:53;1.05;;;0.80;;
23614;SDS011;11985;49.404;7.734;2022-07-18T01:16:19;1.02;;;0.77;;
23614;SDS011;11985;49.404;7.734;2022-07-18T01:18:46;2.92;;;1.20;;
23614;SDS011;11985;49.404;7.734;2022-07-18T01:21:13;4.00;;;1.08;;
23614;SDS011;11985;49.404;7.734;2022-07-18T01:23:39;3.15;;;1.17;;
23614;SDS011;11985;49.404;7.734;2022-07-18T01:26:05;1.42;;;1.00;;
23614;SDS011;11985;49.404;7.734;2022-07-18T01:28:30;2.80;;;0.90;;
23614;SDS011;11985;49.404;7.734;2022-07-18T01:30:56;2.10;;;1.00;;
23614;SDS011;11985;49.404;7.734;2022-07-18T01:33:21;2.70;;;1.00;;
23614;SDS011;11985;49.404;7.734;2022-07-18T01:35:47;2.30;;;1.17;;
23614;SDS011;11985;49.404;7.734;2022-07-18T01:38:12;2.83;;;1.10;;
23614;SDS011;11985;49.404;7.734;2022-07-18T01:40:38;2.13;;;1.13;;
23614;SDS011;11985;49.404;7.734;2022-07-18T01:43:03;2.03;;;1.00;;
23614;SDS011;11985;49.404;7.734;2022-07-18T01:45:29;3.22;;;1.10;;
23614;SDS011;11985;49.404;7.734;2022-07-18T01:47:54;2.60;;;0.90;;
23614;SDS011;11985;49.404;7.734;2022-07-18T01:50:20;1.73;;;0.95;;
23614;SDS011;11985;49.404;7.734;2022-07-18T01:52:45;1.08;;;0.75;;
23614;SDS011;11985;49.404;7.734;2022-07-18T01:55:12;2.95;;;1.27;;
23614;SDS011;11985;49.404;7.734;2022-07-18T01:57:37;1.92;;;0.80;;
23614;SDS011;11985;49.404;7.734;2022-07-18T02:00:04;1.67;;;1.13;;
23614;SDS011;11985;49.404;7.734;2022-07-18T02:02:31;2.15;;;1.20;;
23614;SDS011;11985;49.404;7.734;2022-07-18T02:04:56;2.30;;;0.98;;
23614;SDS011;11985;49.404;7.734;2022-07-18T02:07:25;1.85;;;1.10;;
23614;SDS011;11985;49.404;7.734;2022-07-18T02:09:51;1.92;;;1.00;;
23614;SDS011;11985;49.404;7.734;2022-07-18T02:12:16;1.15;;;1.00;;
23614;SDS011;11985;49.404;7.734;2022-07-18T02:14:42;1.35;;;0.90;;
23614;SDS011;11985;49.404;7.734;2022-07-18T02:17:07;4.10;;;1.35;;
23614;SDS011;11985;49.404;7.734;2022-07-18T02:19:32;1.52;;;0.95;;
23614;SDS011;11985;49.404;7.734;2022-07-18T02:21:58;3.67;;;1.20;;
23614;SDS011;11985;49.404;7.734;2022-07-18T02:24:24;1.88;;;1.00;;
23614;SDS011;11985;49.404;7.734;2022-07-18T02:26:49;3.83;;;1.00;;
23614;SDS011;11985;49.404;7.734;2022-07-18T02:29:14;2.67;;;1.17;;
23614;SDS011;11985;49.404;7.734;2022-07-18T02:31:40;3.22;;;0.88;;
23614;SDS011;11985;49.404;7.734;2022-07-18T02:34:05;2.15;;;1.10;;
23614;SDS011;11985;49.404;7.734;2022-07-18T02:36:36;1.70;;;0.80;;
23614;SDS011;11985;49.404;7.734;2022-07-18T02:39:05;2.30;;;0.90;;
23614;SDS011;11985;49.404;7.734;2022-07-18T02:41:31;2.63;;;1.00;;
23614;SDS011;11985;49.404;7.734;2022-07-18T02:43:57;2.50;;;1.25;;
23614;SDS011;11985;49.404;7.734;2022-07-18T02:46:23;1.33;;;0.93;;
23614;SDS011;11985;49.404;7.734;2022-07-18T02:48:49;2.53;;;0.98;;
23614;SDS011;11985;49.404;7.734;2022-07-18T02:51:14;1.95;;;1.10;;
23614;SDS011;11985;49.404;7.734;2022-07-18T02:53:40;2.35;;;1.10;;
23614;SDS011;11985;49.404;7.734;2022-07-18T02:56:05;5.72;;;1.20;;
23614;SDS011;11985;49.404;7.734;2022-07-18T02:58:30;4.25;;;1.48;;
23614;SDS011;11985;49.404;7.734;2022-07-18T03:00:57;2.38;;;0.75;;
23614;SDS011;11985;49.404;7.734;2022-07-18T03:03:22;3.80;;;0.95;;
23614;SDS011;11985;49.404;7.734;2022-07-18T03:05:48;2.63;;;1.05;;
23614;SDS011;11985;49.404;7.734;2022-07-18T03:08:13;1.85;;;0.93;;
23614;SDS011;11985;49.404;7.734;2022-07-18T03:10:38;2.40;;;1.10;;
23614;SDS011;11985;49.404;7.734;2022-07-18T03:13:04;2.17;;;0.90;;
23614;SDS011;11985;49.404;7.734;2022-07-18T03:15:30;1.67;;;1.13;;
23614;SDS011;11985;49.404;7.734;2022-07-18T03:17:55;1.38;;;0.93;;
23614;SDS011;11985;49.404;7.734;2022-07-18T03:20:21;1.42;;;0.90;;
23614;SDS011;11985;49.404;7.734;2022-07-18T03:22:46;2.08;;;1.00;;
23614;SDS011;11985;49.404;7.734;2022-07-18T03:25:11;2.78;;;1.20;;
23614;SDS011;11985;49.404;7.734;2022-07-18T03:27:37;2.83;;;1.10;;
23614;SDS011;11985;49.404;7.734;2022-07-18T03:30:02;3.53;;;1.17;;
23614;SDS011;11985;49.404;7.734;2022-07-18T03:32:28;5.40;;;1.05;;
23614;SDS011;11985;49.404;7.734;2022-07-18T03:34:53;1.70;;;0.98;;
23614;SDS011;11985;49.404;7.734;2022-07-18T03:37:18;3.00;;;0.98;;
23614;SDS011;11985;49.404;7.734;2022-07-18T03:39:44;2.58;;;1.02;;
23614;SDS011;11985;49.404;7.734;2022-07-18T03:42:09;1.60;;;1.02;;
23614;SDS011;11985;49.404;7.734;2022-07-18T03:44:34;4.30;;;1.20;;
23614;SDS011;11985;49.404;7.734;2022-07-18T03:47:00;5.82;;;1.13;;
23614;SDS011;11985;49.404;7.734;2022-07-18T03:49:25;3.10;;;1.10;;
23614;SDS011;11985;49.404;7.734;2022-07-18T03:51:50;1.50;;;1.05;;
23614;SDS011;11985;49.404;7.734;2022-07-18T03:54:16;4.32;;;1.17;;
23614;SDS011;11985;49.404;7.734;2022-07-18T03:56:41;2.03;;;1.00;;
23614;SDS011;11985;49.404;7.734;2022-07-18T03:59:06;1.08;;;0.75;;
23614;SDS011;11985;49.404;7.734;2022-07-18T04:01:32;1.33;;;1.00;;
23614;SDS011;11985;49.404;7.734;2022-07-18T04:04:00;2.80;;;1.00;;
23614;SDS011;11985;49.404;7.734;2022-07-18T04:06:26;1.83;;;0.90;;
23614;SDS011;11985;49.404;7.734;2022-07-18T04:08:51;1.48;;;1.00;;
23614;SDS011;11985;49.404;7.734;2022-07-18T04:11:16;3.78;;;1.27;;
23614;SDS011;11985;49.404;7.734;2022-07-18T04:13:44;2.53;;;1.10;;
23614;SDS011;11985;49.404;7.734;2022-07-18T04:16:10;3.53;;;1.08;;
23614;SDS011;11985;49.404;7.734;2022-07-18T04:18:35;3.08;;;1.10;;
23614;SDS011;11985;49.404;7.734;2022-07-18T04:21:01;2.88;;;1.17;;
23614;SDS011;11985;49.404;7.734;2022-07-18T04:23:26;5.07;;;1.50;;
23614;SDS011;11985;49.404;7.734;2022-07-18T04:25:52;3.40;;;1.20;;
23614;SDS011;11985;49.404;7.734;2022-07-18T04:28:17;3.95;;;1.20;;
23614;SDS011;11985;49.404;7.734;2022-07-18T04:30:43;1.40;;;0.88;;
23614;SDS011;11985;49.404;7.734;2022-07-18T04:33:10;3.72;;;1.27;;
23614;SDS011;11985;49.404;7.734;2022-07-18T04:35:37;3.60;;;1.00;;
23614;SDS011;11985;49.404;7.734;2022-07-18T04:38:04;2.00;;;1.10;;
23614;SDS011;11985;49.404;7.734;2022-07-18T04:40:30;5.20;;;1.20;;
23614;SDS011;11985;49.404;7.734;2022-07-18T04:42:55;2.67;;;1.17;;
23614;SDS011;11985;49.404;7.734;2022-07-18T04:45:21;2.47;;;0.90;;
23614;SDS011;11985;49.404;7.734;2022-07-18T04:47:51;6.63;;;1.10;;
23614;SDS011;11985;49.404;7.734;2022-07-18T04:50:18;9.35;;;4.50;;
23614;SDS011;11985;49.404;7.734;2022-07-18T04:52:45;9.25;;;4.63;;
23614;SDS011;11985;49.404;7.734;2022-07-18T04:55:12;9.52;;;4.88;;
23614;SDS011;11985;49.404;7.734;2022-07-18T04:57:39;4.43;;;2.30;;
23614;SDS011;11985;49.404;7.734;2022-07-18T05:00:06;2.60;;;1.60;;
23614;SDS011;11985;49.404;7.734;2022-07-18T05:02:43;1.98;;;1.10;;
23614;SDS011;11985;49.404;7.734;2022-07-18T05:05:11;1.30;;;0.95;;
23614;SDS011;11985;49.404;7.734;2022-07-18T05:07:38;2.50;;;1.23;;
23614;SDS011;11985;49.404;7.734;2022-07-18T05:10:04;1.90;;;1.30;;
23614;SDS011;11985;49.404;7.734;2022-07-18T05:12:33;1.48;;;1.13;;
23614;SDS011;11985;49.404;7.734;2022-07-18T05:15:06;1.83;;;1.27;;
23614;SDS011;11985;49.404;7.734;2022-07-18T05:17:34;3.70;;;1.15;;
23614;SDS011;11985;49.404;7.734;2022-07-18T05:20:00;0.85;;;0.80;;
23614;SDS011;11985;49.404;7.734;2022-07-18T05:22:25;4.18;;;1.33;;
23614;SDS011;11985;49.404;7.734;2022-07-18T05:24:52;3.25;;;1.00;;
23614;SDS011;11985;49.404;7.734;2022-07-18T05:27:17;2.70;;;1.27;;
23614;SDS011;11985;49.404;7.734;2022-07-18T05:29:43;1.63;;;0.98;;
23614;SDS011;11985;49.404;7.734;2022-07-18T05:32:08;5.28;;;1.48;;
23614;SDS011;11985;49.404;7.734;2022-07-18T05:34:34;2.15;;;1.10;;
23614;SDS011;11985;49.404;7.734;2022-07-18T05:36:59;3.05;;;1.50;;
23614;SDS011;11985;49.404;7.734;2022-07-18T05:39:25;1.83;;;1.10;;
23614;SDS011;11985;49.404;7.734;2022-07-18T05:41:51;2.15;;;1.08;;
23614;SDS011;11985;49.404;7.734;2022-07-18T05:44:17;2.28;;;1.10;;
23614;SDS011;11985;49.404;7.734;2022-07-18T05:46:45;1.85;;;1.13;;
23614;SDS011;11985;49.404;7.734;2022-07-18T05:49:11;3.78;;;1.08;;
23614;SDS011;11985;49.404;7.734;2022-07-18T05:51:37;2.45;;;1.05;;
23614;SDS011;11985;49.404;7.734;2022-07-18T05:54:02;2.92;;;1.17;;
23614;SDS011;11985;49.404;7.734;2022-07-18T05:56:27;2.03;;;1.10;;
23614;SDS011;11985;49.404;7.734;2022-07-18T05:58:53;4.50;;;1.60;;
23614;SDS011;11985;49.404;7.734;2022-07-18T06:01:18;2.85;;;1.20;;
23614;SDS011;11985;49.404;7.734;2022-07-18T06:03:45;2.80;;;1.02;;
23614;SDS011;11985;49.404;7.734;2022-07-18T06:06:12;4.05;;;1.08;;
23614;SDS011;11985;49.404;7.734;2022-07-18T06:08:37;5.78;;;1.60;;
23614;SDS011;11985;49.404;7.734;2022-07-18T06:11:02;4.00;;;1.20;;
23614;SDS011;11985;49.404;7.734;2022-07-18T06:13:29;1.92;;;0.88;;
23614;SDS011;11985;49.404;7.734;2022-07-18T06:15:55;3.50;;;1.00;;
23614;SDS011;11985;49.404;7.734;2022-07-18T06:18:20;4.32;;;1.10;;
23614;SDS011;11985;49.404;7.734;2022-07-18T06:20:45;3.78;;;1.40;;
23614;SDS011;11985;49.404;7.734;2022-07-18T06:23:11;2.65;;;1.23;;
23614;SDS011;11985;49.404;7.734;2022-07-18T06:25:36;5.97;;;2.05;;
23614;SDS011;11985;49.404;7.734;2022-07-18T06:28:01;1.20;;;1.00;;
23614;SDS011;11985;49.404;7.734;2022-07-18T06:30:27;2.65;;;1.60;;
23614;SDS011;11985;49.404;7.734;2022-07-18T06:32:52;6.22;;;1.20;;
23614;SDS011;11985;49.404;7.734;2022-07-18T06:35:17;3.78;;;1.00;;
23614;SDS011;11985;49.404;7.734;2022-07-18T06:37:43;4.63;;;1.77;;
23614;SDS011;11985;49.404;7.734;2022-07-18T06:40:09;2.38;;;1.00;;
23614;SDS011;11985;49.404;7.734;2022-07-18T06:42:34;1.75;;;1.20;;
23614;SDS011;11985;49.404;7.734;2022-07-18T06:45:00;2.67;;;1.15;;
23614;SDS011;11985;49.404;7.734;2022-07-18T06:47:25;6.50;;;1.30;;
23614;SDS011;11985;49.404;7.734;2022-07-18T06:49:51;2.33;;;1.38;;
23614;SDS011;11985;49.404;7.734;2022-07-18T06:52:16;2.60;;;1.30;;
23614;SDS011;11985;49.404;7.734;2022-07-18T06:54:42;2.50;;;1.50;;
23614;SDS011;11985;49.404;7.734;2022-07-18T06:57:07;5.97;;;1.20;;
23614;SDS011;11985;49.404;7.734;2022-07-18T06:59:34;4.95;;;1.50;;
23614;SDS011;11985;49.404;7.734;2022-07-18T07:02:00;1.98;;;1.20;;
23614;SDS011;11985;49.404;7.734;2022-07-18T07:04:25;2.10;;;1.13;;
23614;SDS011;11985;49.404;7.734;2022-07-18T07:06:50;4.10;;;1.40;;
23614;SDS011;11985;49.404;7.734;2022-07-18T07:09:16;8.88;;;1.73;;
23614;SDS011;11985;49.404;7.734;2022-07-18T07:11:41;4.25;;;1.42;;
23614;SDS011;11985;49.404;7.734;2022-07-18T07:14:06;4.05;;;1.13;;
23614;SDS011;11985;49.404;7.734;2022-07-18T07:16:32;6.95;;;1.40;;
23614;SDS011;11985;49.404;7.734;2022-07-18T07:18:57;6.13;;;1.55;;
23614;SDS011;11985;49.404;7.734;2022-07-18T07:21:23;2.53;;;1.20;;
23614;SDS011;11985;49.404;7.734;2022-07-18T07:23:48;2.95;;;1.42;;
23614;SDS011;11985;49.404;7.734;2022-07-18T07:26:13;2.03;;;1.38;;
23614;SDS011;11985;49.404;7.734;2022-07-18T07:28:39;2.90;;;1.40;;
23614;SDS011;11985;49.404;7.734;2022-07-18T07:31:04;2.15;;;1.27;;
23614;SDS011;11985;49.404;7.734;2022-07-18T07:33:30;2.67;;;1.48;;
23614;SDS011;11985;49.404;7.734;2022-07-18T07:35:56;2.15;;;1.40;;
23614;SDS011;11985;49.404;7.734;2022-07-18T07:38:22;4.78;;;1.58;;
23614;SDS011;11985;49.404;7.734;2022-07-18T07:40:53;5.07;;;1.45;;
23614;SDS011;11985;49.404;7.734;2022-07-18T07:43:19;3.05;;;1.60;;
23614;SDS011;11985;49.404;7.734;2022-07-18T07:45:48;2.78;;;1.40;;
23614;SDS011;11985;49.404;7.734;2022-07-18T07:48:16;2.38;;;1.35;;
23614;SDS011;11985;49.404;7.734;2022-07-18T07:50:42;3.65;;;1.30;;
23614;SDS011;11985;49.404;7.734;2022-07-18T07:53:07;10.02;;;1.63;;
23614;SDS011;11985;49.404;7.734;2022-07-18T07:55:33;4.10;;;1.60;;
23614;SDS011;11985;49.404;7.734;2022-07-18T07:57:58;3.47;;;1.27;;
23614;SDS011;11985;49.404;7.734;2022-07-18T08:00:24;3.33;;;1.20;;
23614;SDS011;11985;49.404;7.734;2022-07-18T08:02:50;4.47;;;1.30;;
23614;SDS011;11985;49.404;7.734;2022-07-18T08:05:16;2.30;;;1.23;;
23614;SDS011;11985;49.404;7.734;2022-07-18T08:07:41;4.43;;;1.40;;
23614;SDS011;11985;49.404;7.734;2022-07-18T08:10:06;5.00;;;1.38;;
23614;SDS011;11985;49.404;7.734;2022-07-18T08:12:32;3.38;;;1.30;;
23614;SDS011;11985;49.404;7.734;2022-07-18T08:14:57;4.72;;;1.33;;
23614;SDS011;11985;49.404;7.734;2022-07-18T08:17:23;2.30;;;1.17;;
23614;SDS011;11985;49.404;7.734;2022-07-18T08:19:48;3.03;;;1.10;;
23614;SDS011;11985;49.404;7.734;2022-07-18T08:22:13;3.10;;;1.50;;
23614;SDS011;11985;49.404;7.734;2022-07-18T08:24:39;2.85;;;1.20;;
23614;SDS011;11985;49.404;7.734;2022-07-18T08:27:05;2.67;;;1.23;;
23614;SDS011;11985;49.404;7.734;2022-07-18T08:29:31;3.03;;;0.90;;
23614;SDS011;11985;49.404;7.734;2022-07-18T08:31:56;2.85;;;1.15;;
23614;SDS011;11985;49.404;7.734;2022-07-18T08:34:22;1.63;;;0.90;;
23614;SDS011;11985;49.404;7.734;2022-07-18T08:36:47;1.73;;;1.15;;
23614;SDS011;11985;49.404;7.734;2022-07-18T08:39:12;3.53;;;1.20;;
23614;SDS011;11985;49.404;7.734;2022-07-18T08:41:38;3.38;;;1.20;;
23614;SDS011;11985;49.404;7.734;2022-07-18T08:44:08;3.00;;;1.30;;
23614;SDS011;11985;49.404;7.734;2022-07-18T08:46:34;2.25;;;1.08;;
23614;SDS011;11985;49.404;7.734;2022-07-18T08:49:01;1.33;;;0.98;;
23614;SDS011;11985;49.404;7.734;2022-07-18T08:51:26;3.30;;;1.23;;
23614;SDS011;11985;49.404;7.734;2022-07-18T08:53:52;4.63;;;1.25;;
23614;SDS011;11985;49.404;7.734;2022-07-18T08:56:20;1.80;;;1.00;;
23614;SDS011;11985;49.404;7.734;2022-07-18T08:58:46;3.65;;;1.00;;
23614;SDS011;11985;49.404;7.734;2022-07-18T09:01:11;3.08;;;1.08;;
23614;SDS011;11985;49.404;7.734;2022-07-18T09:03:37;3.80;;;0.90;;
23614;SDS011;11985;49.404;7.734;2022-07-18T09:06:07;2.25;;;1.02;;
23614;SDS011;11985;49.404;7.734;2022-07-18T09:08:33;1.83;;;1.13;;
23614;SDS011;11985;49.404;7.734;2022-07-18T09:11:01;2.17;;;1.35;;
23614;SDS011;11985;49.404;7.734;2022-07-18T09:16:03;2.65;;;1.00;;
23614;SDS011;11985;49.404;7.734;2022-07-18T09:18:31;2.90;;;1.25;;
23614;SDS011;11985;49.404;7.734;2022-07-18T09:21:02;1.58;;;1.02;;
23614;SDS011;11985;49.404;7.734;2022-07-18T09:23:31;2.80;;;1.10;;
23614;SDS011;11985;49.404;7.734;2022-07-18T09:25:57;2.92;;;1.17;;
23614;SDS011;11985;49.404;7.734;2022-07-18T09:28:24;1.45;;;1.10;;
23614;SDS011;11985;49.404;7.734;2022-07-18T09:30:50;1.60;;;1.00;;
23614;SDS011;11985;49.404;7.734;2022-07-18T09:33:15;1.83;;;0.90;;
23614;SDS011;11985;49.404;7.734;2022-07-18T09:38:10;3.50;;;1.00;;
23614;SDS011;11985;49.404;7.734;2022-07-18T09:40:40;1.75;;;0.88;;
23614;SDS011;11985;49.404;7.734;2022-07-18T09:43:08;3.47;;;1.03;;
23614;SDS011;11985;49.404;7.734;2022-07-18T09:45:39;2.05;;;1.13;;
23614;SDS011;11985;49.404;7.734;2022-07-18T09:48:19;2.45;;;1.10;;
23614;SDS011;11985;49.404;7.734;2022-07-18T09:53:26;1.40;;;0.80;;
23614;SDS011;11985;49.404;7.734;2022-07-18T09:55:52;1.73;;;1.10;;
23614;SDS011;11985;49.404;7.734;2022-07-18T09:58:23;1.98;;;1.05;;
23614;SDS011;11985;49.404;7.734;2022-07-18T10:00:50;3.90;;;1.20;;
23614;SDS011;11985;49.404;7.734;2022-07-18T10:03:16;2.13;;;0.90;;
23614;SDS011;11985;49.404;7.734;2022-07-18T10:05:43;1.00;;;0.85;;
23614;SDS011;11985;49.404;7.734;2022-07-18T10:08:12;1.55;;;0.85;;
23614;SDS011;11985;49.404;7.734;2022-07-18T10:10:40;1.63;;;1.08;;
23614;SDS011;11985;49.404;7.734;2022-07-18T10:13:07;1.13;;;1.00;;
23614;SDS011;11985;49.404;7.734;2022-07-18T10:15:34;1.20;;;0.80;;
23614;SDS011;11985;49.404;7.734;2022-07-18T10:18:04;1.48;;;1.00;;
23614;SDS011;11985;49.404;7.734;2022-07-18T10:22:58;8.40;;;1.13;;
23614;SDS011;11985;49.404;7.734;2022-07-18T10:25:27;3.60;;;1.10;;
23614;SDS011;11985;49.404;7.734;2022-07-18T10:36:07;2.30;;;1.10;;
23614;SDS011;11985;49.404;7.734;2022-07-18T10:38:38;3.10;;;1.10;;
23614;SDS011;11985;49.404;7.734;2022-07-18T10:41:05;2.40;;;1.40;;
23614;SDS011;11985;49.404;7.734;2022-07-18T10:43:31;1.60;;;1.10;;
23614;SDS011;11985;49.404;7.734;2022-07-18T10:45:58;1.70;;;0.93;;
23614;SDS011;11985;49.404;7.734;2022-07-18T10:51:05;2.40;;;1.08;;
23614;SDS011;11985;49.404;7.734;2022-07-18T10:58:56;2.00;;;1.10;;
23614;SDS011;11985;49.404;7.734;2022-07-18T11:01:23;2.20;;;1.20;;
23614;SDS011;11985;49.404;7.734;2022-07-18T11:03:49;8.57;;;1.17;;
23614;SDS011;11985;49.404;7.734;2022-07-18T11:06:15;1.48;;;1.00;;
23614;SDS011;11985;49.404;7.734;2022-07-18T11:08:41;3.85;;;1.27;;
23614;SDS011;11985;49.404;7.734;2022-07-18T11:11:07;1.95;;;1.17;;
23614;SDS011;11985;49.404;7.734;2022-07-18T11:13:36;2.70;;;1.27;;
23614;SDS011;11985;49.404;7.734;2022-07-18T11:16:13;2.25;;;1.00;;
23614;SDS011;11985;49.404;7.734;2022-07-18T11:21:18;2.72;;;1.23;;
23614;SDS011;11985;49.404;7.734;2022-07-18T11:23:47;3.83;;;1.00;;
23614;SDS011;11985;49.404;7.734;2022-07-18T11:26:18;1.90;;;0.98;;
23614;SDS011;11985;49.404;7.734;2022-07-18T11:28:46;5.00;;;1.15;;
23614;SDS011;11985;49.404;7.734;2022-07-18T11:31:16;3.10;;;1.30;;
23614;SDS011;11985;49.404;7.734;2022-07-18T11:33:44;1.90;;;1.13;;
23614;SDS011;11985;49.404;7.734;2022-07-18T11:36:14;2.20;;;1.10;;
23614;SDS011;11985;49.404;7.734;2022-07-18T11:38:46;2.70;;;1.35;;
23614;SDS011;11985;49.404;7.734;2022-07-18T11:41:16;2.50;;;1.10;;
23614;SDS011;11985;49.404;7.734;2022-07-18T11:43:46;2.97;;;1.10;;
23614;SDS011;11985;49.404;7.734;2022-07-18T11:46:14;3.23;;;1.33;;
23614;SDS011;11985;49.404;7.734;2022-07-18T11:48:42;1.50;;;1.00;;
23614;SDS011;11985;49.404;7.734;2022-07-18T11:51:12;7.40;;;0.90;;
23614;SDS011;11985;49.404;7.734;2022-07-18T11:56:20;1.95;;;1.08;;
23614;SDS011;11985;49.404;7.734;2022-07-18T11:58:47;4.60;;;1.40;;
23614;SDS011;11985;49.404;7.734;2022-07-18T12:01:14;1.70;;;1.23;;
23614;SDS011;11985;49.404;7.734;2022-07-18T12:03:41;3.00;;;1.10;;
23614;SDS011;11985;49.404;7.734;2022-07-18T12:06:30;2.03;;;1.30;;
23614;SDS011;11985;49.404;7.734;2022-07-18T12:08:55;6.10;;;1.30;;
23614;SDS011;11985;49.404;7.734;2022-07-18T12:11:28;2.53;;;1.30;;
23614;SDS011;11985;49.404;7.734;2022-07-18T12:16:35;2.78;;;1.50;;
23614;SDS011;11985;49.404;7.734;2022-07-18T12:27:10;3.97;;;1.17;;
23614;SDS011;11985;49.404;7.734;2022-07-18T12:32:49;1.35;;;0.90;;
23614;SDS011;11985;49.404;7.734;2022-07-18T12:38:04;1.90;;;1.08;;
23614;SDS011;11985;49.404;7.734;2022-07-18T12:45:51;1.33;;;1.08;;
23614;SDS011;11985;49.404;7.734;2022-07-18T12:48:17;2.90;;;1.20;;
23614;SDS011;11985;49.404;7.734;2022-07-18T12:50:43;3.35;;;1.20;;
23614;SDS011;11985;49.404;7.734;2022-07-18T12:53:12;1.80;;;1.20;;
23614;SDS011;11985;49.404;7.734;2022-07-18T12:55:38;6.00;;;1.67;;
23614;SDS011;11985;49.404;7.734;2022-07-18T12:58:04;2.53;;;1.50;;
23614;SDS011;11985;49.404;7.734;2022-07-18T13:00:30;1.20;;;1.10;;
23614;SDS011;11985;49.404;7.734;2022-07-18T13:02:57;4.93;;;1.50;;
23614;SDS011;11985;49.404;7.734;2022-07-18T13:05:24;1.92;;;1.30;;
23614;SDS011;11985;49.404;7.734;2022-07-18T13:07:50;3.03;;;1.52;;
23614;SDS011;11985;49.404;7.734;2022-07-18T13:10:16;4.75;;;1.58;;
23614;SDS011;11985;49.404;7.734;2022-07-18T13:12:41;3.30;;;1.52;;
23614;SDS011;11985;49.404;7.734;2022-07-18T13:15:07;1.90;;;1.27;;
23614;SDS011;11985;49.404;7.734;2022-07-18T13:17:32;2.58;;;1.33;;
23614;SDS011;11985;49.404;7.734;2022-07-18T13:19:58;2.03;;;1.50;;
23614;SDS011;11985;49.404;7.734;2022-07-18T13:22:23;4.30;;;1.33;;
23614;SDS011;11985;49.404;7.734;2022-07-18T13:24:48;2.20;;;1.25;;
23614;SDS011;11985;49.404;7.734;2022-07-18T13:27:14;2.33;;;1.40;;
23614;SDS011;11985;49.404;7.734;2022-07-18T13:29:39;3.60;;;1.40;;
23614;SDS011;11985;49.404;7.734;2022-07-18T13:32:04;1.90;;;1.30;;
23614;SDS011;11985;49.404;7.734;2022-07-18T13:34:30;3.33;;;1.08;;
23614;SDS011;11985;49.404;7.734;2022-07-18T13:36:55;1.95;;;1.05;;
23614;SDS011;11985;49.404;7.734;2022-07-18T13:39:21;5.72;;;1.38;;
23614;SDS011;11985;49.404;7.734;2022-07-18T13:41:47;3.00;;;1.00;;
23614;SDS011;11985;49.404;7.734;2022-07-18T13:44:13;4.47;;;1.25;;
23614;SDS011;11985;49.404;7.734;2022-07-18T13:46:39;3.17;;;1.40;;
23614;SDS011;11985;49.404;7.734;2022-07-18T13:49:06;2.70;;;1.58;;
23614;SDS011;11985;49.404;7.734;2022-07-18T13:51:32;2.17;;;1.30;;
23614;SDS011;11985;49.404;7.734;2022-07-18T13:53:58;3.75;;;1.33;;
23614;SDS011;11985;49.404;7.734;2022-07-18T13:56:23;3.72;;;2.13;;
23614;SDS011;11985;49.404;7.734;2022-07-18T13:58:49;2.50;;;1.30;;
23614;SDS011;11985;49.404;7.734;2022-07-18T14:01:17;2.08;;;1.40;;
23614;SDS011;11985;49.404;7.734;2022-07-18T14:03:43;2.90;;;1.38;;
23614;SDS011;11985;49.404;7.734;2022-07-18T14:06:09;2.88;;;1.35;;
23614;SDS011;11985;49.404;7.734;2022-07-18T14:08:35;4.53;;;1.50;;
23614;SDS011;11985;49.404;7.734;2022-07-18T14:11:02;2.53;;;1.40;;
23614;SDS011;11985;49.404;7.734;2022-07-18T14:13:27;2.30;;;1.65;;
23614;SDS011;11985;49.404;7.734;2022-07-18T14:15:52;3.67;;;1.40;;
23614;SDS011;11985;49.404;7.734;2022-07-18T14:18:18;3.72;;;1.70;;
23614;SDS011;11985;49.404;7.734;2022-07-18T14:20:43;2.88;;;1.65;;
23614;SDS011;11985;49.404;7.734;2022-07-18T14:23:08;2.88;;;1.52;;
23614;SDS011;11985;49.404;7.734;2022-07-18T14:25:34;6.88;;;1.92;;
23614;SDS011;11985;49.404;7.734;2022-07-18T14:27:59;3.28;;;1.40;;
23614;SDS011;11985;49.404;7.734;2022-07-18T14:30:25;3.47;;;1.38;;
23614;SDS011;11985;49.404;7.734;2022-07-18T14:32:51;2.28;;;1.70;;
23614;SDS011;11985;49.404;7.734;2022-07-18T14:35:16;3.08;;;1.30;;
23614;SDS011;11985;49.404;7.734;2022-07-18T14:37:41;2.78;;;1.30;;
23614;SDS011;11985;49.404;7.734;2022-07-18T14:40:07;4.97;;;1.50;;
23614;SDS011;11985;49.404;7.734;2022-07-18T14:42:33;6.20;;;1.50;;
23614;SDS011;11985;49.404;7.734;2022-07-18T14:44:59;2.10;;;1.17;;
23614;SDS011;11985;49.404;7.734;2022-07-18T14:47:26;3.55;;;1.50;;
23614;SDS011;11985;49.404;7.734;2022-07-18T14:49:51;2.65;;;1.52;;
23614;SDS011;11985;49.404;7.734;2022-07-18T14:52:18;1.95;;;1.30;;
23614;SDS011;11985;49.404;7.734;2022-07-18T14:54:44;3.58;;;1.40;;
23614;SDS011;11985;49.404;7.734;2022-07-18T14:57:09;5.30;;;1.48;;
23614;SDS011;11985;49.404;7.734;2022-07-18T14:59:34;4.05;;;1.33;;
23614;SDS011;11985;49.404;7.734;2022-07-18T15:02:00;2.40;;;1.50;;
23614;SDS011;11985;49.404;7.734;2022-07-18T15:04:30;5.30;;;1.50;;
23614;SDS011;11985;49.404;7.734;2022-07-18T15:06:57;5.82;;;1.60;;
23614;SDS011;11985;49.404;7.734;2022-07-18T15:09:22;2.75;;;1.60;;
23614;SDS011;11985;49.404;7.734;2022-07-18T15:11:47;3.33;;;1.23;;
23614;SDS011;11985;49.404;7.734;2022-07-18T15:14:13;3.55;;;1.60;;
23614;SDS011;11985;49.404;7.734;2022-07-18T15:16:38;2.35;;;1.67;;
23614;SDS011;11985;49.404;7.734;2022-07-18T15:19:04;3.97;;;1.40;;
23614;SDS011;11985;49.404;7.734;2022-07-18T15:21:29;6.70;;;1.83;;
23614;SDS011;11985;49.404;7.734;2022-07-18T15:23:55;4.63;;;1.70;;
23614;SDS011;11985;49.404;7.734;2022-07-18T15:26:22;1.73;;;1.27;;
23614;SDS011;11985;49.404;7.734;2022-07-18T15:28:47;2.85;;;1.30;;
23614;SDS011;11985;49.404;7.734;2022-07-18T15:31:12;4.47;;;1.50;;
23614;SDS011;11985;49.404;7.734;2022-07-18T15:33:38;2.10;;;1.38;;
23614;SDS011;11985;49.404;7.734;2022-07-18T15:36:03;4.13;;;1.55;;